sensor_id;sensor_type;location;lat;lon;timestamp;temperature;humidity
69436;SHT31;56625;54.322;18.582;2024-02-21T00:00:10;6.20;83.82
69436;SHT31;56625;54.322;18.582;2024-02-21T00:02:58;6.20;83.94
69436;SHT31;56625;54.322;18.582;2024-02-21T00:05:30;6.22;83.83
69436;SHT31;56625;54.322;18.582;2024-02-21T00:07:58;6.23;83.76
69436;SHT31;56625;54.322;18.582;2024-02-21T00:10:28;6.24;83.77
69436;SHT31;56625;54.322;18.582;2024-02-21T00:12:56;6.24;83.64
69436;SHT31;56625;54.322;18.582;2024-02-21T00:15:25;6.24;83.74
69436;SHT31;56625;54.322;18.582;2024-02-21T00:17:53;6.27;83.92
69436;SHT31;56625;54.322;18.582;2024-02-21T00:20:22;6.30;83.90
69436;SHT31;56625;54.322;18.582;2024-02-21T00:22:50;6.34;83.87
69436;SHT31;56625;54.322;18.582;2024-02-21T00:25:18;6.33;83.73
69436;SHT31;56625;54.322;18.582;2024-02-21T00:27:47;6.29;83.54
69436;SHT31;56625;54.322;18.582;2024-02-21T00:30:15;6.24;83.63
69436;SHT31;56625;54.322;18.582;2024-02-21T00:32:44;6.24;83.74
69436;SHT31;56625;54.322;18.582;2024-02-21T00:35:12;6.21;83.80
69436;SHT31;56625;54.322;18.582;2024-02-21T00:37:42;6.21;83.89
69436;SHT31;56625;54.322;18.582;2024-02-21T00:40:10;6.20;83.94
69436;SHT31;56625;54.322;18.582;2024-02-21T00:42:39;6.18;84.02
69436;SHT31;56625;54.322;18.582;2024-02-21T00:45:07;6.18;84.10
69436;SHT31;56625;54.322;18.582;2024-02-21T00:47:36;6.18;84.20
69436;SHT31;56625;54.322;18.582;2024-02-21T00:50:04;6.16;84.26
69436;SHT31;56625;54.322;18.582;2024-02-21T00:52:37;6.15;84.46
69436;SHT31;56625;54.322;18.582;2024-02-21T00:55:05;6.14;84.69
69436;SHT31;56625;54.322;18.582;2024-02-21T00:57:35;6.12;85.07
69436;SHT31;56625;54.322;18.582;2024-02-21T01:00:03;6.12;85.26
69436;SHT31;56625;54.322;18.582;2024-02-21T01:02:32;6.10;85.32
69436;SHT31;56625;54.322;18.582;2024-02-21T01:05:00;6.10;85.38
69436;SHT31;56625;54.322;18.582;2024-02-21T01:07:30;6.11;85.51
69436;SHT31;56625;54.322;18.582;2024-02-21T01:09:58;6.11;85.58
69436;SHT31;56625;54.322;18.582;2024-02-21T01:12:26;6.12;85.64
69436;SHT31;56625;54.322;18.582;2024-02-21T01:14:55;6.13;85.74
69436;SHT31;56625;54.322;18.582;2024-02-21T01:17:23;6.14;85.80
69436;SHT31;56625;54.322;18.582;2024-02-21T01:19:51;6.16;85.86
69436;SHT31;56625;54.322;18.582;2024-02-21T01:22:19;6.16;85.95
69436;SHT31;56625;54.322;18.582;2024-02-21T01:24:47;6.17;86.07
69436;SHT31;56625;54.322;18.582;2024-02-21T01:27:15;6.17;86.13
69436;SHT31;56625;54.322;18.582;2024-02-21T01:29:45;6.21;86.29
69436;SHT31;56625;54.322;18.582;2024-02-21T01:32:15;6.21;86.54
69436;SHT31;56625;54.322;18.582;2024-02-21T01:34:44;6.21;86.67
69436;SHT31;56625;54.322;18.582;2024-02-21T01:37:12;6.22;86.80
69436;SHT31;56625;54.322;18.582;2024-02-21T01:39:40;6.24;86.93
69436;SHT31;56625;54.322;18.582;2024-02-21T01:42:08;6.24;86.92
69436;SHT31;56625;54.322;18.582;2024-02-21T01:44:36;6.27;86.91
69436;SHT31;56625;54.322;18.582;2024-02-21T01:47:05;6.29;86.95
69436;SHT31;56625;54.322;18.582;2024-02-21T01:49:34;6.31;86.94
69436;SHT31;56625;54.322;18.582;2024-02-21T01:52:02;6.34;87.04
69436;SHT31;56625;54.322;18.582;2024-02-21T01:54:31;6.35;87.01
69436;SHT31;56625;54.322;18.582;2024-02-21T01:57:00;6.35;86.99
69436;SHT31;56625;54.322;18.582;2024-02-21T01:59:29;6.36;87.01
69436;SHT31;56625;54.322;18.582;2024-02-21T02:01:57;6.38;86.95
69436;SHT31;56625;54.322;18.582;2024-02-21T02:04:26;6.40;87.00
69436;SHT31;56625;54.322;18.582;2024-02-21T02:06:55;6.42;86.91
69436;SHT31;56625;54.322;18.582;2024-02-21T02:09:24;6.45;86.90
69436;SHT31;56625;54.322;18.582;2024-02-21T02:11:52;6.46;86.84
69436;SHT31;56625;54.322;18.582;2024-02-21T02:14:20;6.46;86.81
69436;SHT31;56625;54.322;18.582;2024-02-21T02:16:49;6.46;86.83
69436;SHT31;56625;54.322;18.582;2024-02-21T02:19:17;6.50;86.88
69436;SHT31;56625;54.322;18.582;2024-02-21T02:21:46;6.52;86.82
69436;SHT31;56625;54.322;18.582;2024-02-21T02:24:23;6.56;86.86
69436;SHT31;56625;54.322;18.582;2024-02-21T02:26:55;6.58;86.76
69436;SHT31;56625;54.322;18.582;2024-02-21T02:29:24;6.58;86.57
69436;SHT31;56625;54.322;18.582;2024-02-21T02:31:52;6.57;86.55
69436;SHT31;56625;54.322;18.582;2024-02-21T02:34:20;6.59;86.64
69436;SHT31;56625;54.322;18.582;2024-02-21T02:36:49;6.61;86.56
69436;SHT31;56625;54.322;18.582;2024-02-21T02:39:17;6.60;86.57
69436;SHT31;56625;54.322;18.582;2024-02-21T02:41:45;6.63;86.69
69436;SHT31;56625;54.322;18.582;2024-02-21T02:44:13;6.68;86.73
69436;SHT31;56625;54.322;18.582;2024-02-21T02:46:41;6.69;86.60
69436;SHT31;56625;54.322;18.582;2024-02-21T02:49:10;6.73;86.65
69436;SHT31;56625;54.322;18.582;2024-02-21T02:51:42;6.74;86.43
69436;SHT31;56625;54.322;18.582;2024-02-21T02:54:11;6.72;86.37
69436;SHT31;56625;54.322;18.582;2024-02-21T02:56:39;6.71;86.43
69436;SHT31;56625;54.322;18.582;2024-02-21T02:59:07;6.71;86.48
69436;SHT31;56625;54.322;18.582;2024-02-21T03:01:35;6.72;86.50
69436;SHT31;56625;54.322;18.582;2024-02-21T03:04:04;6.71;86.49
69436;SHT31;56625;54.322;18.582;2024-02-21T03:06:32;6.70;86.50
69436;SHT31;56625;54.322;18.582;2024-02-21T03:09:00;6.68;86.57
69436;SHT31;56625;54.322;18.582;2024-02-21T03:11:29;6.66;86.69
69436;SHT31;56625;54.322;18.582;2024-02-21T03:13:57;6.67;86.76
69436;SHT31;56625;54.322;18.582;2024-02-21T03:16:26;6.66;86.84
69436;SHT31;56625;54.322;18.582;2024-02-21T03:18:54;6.66;86.90
69436;SHT31;56625;54.322;18.582;2024-02-21T03:21:22;6.64;86.99
69436;SHT31;56625;54.322;18.582;2024-02-21T03:23:50;6.63;87.08
69436;SHT31;56625;54.322;18.582;2024-02-21T03:26:18;6.63;87.12
69436;SHT31;56625;54.322;18.582;2024-02-21T03:28:46;6.63;87.21
69436;SHT31;56625;54.322;18.582;2024-02-21T03:31:14;6.61;87.31
69436;SHT31;56625;54.322;18.582;2024-02-21T03:33:42;6.61;87.40
69436;SHT31;56625;54.322;18.582;2024-02-21T03:36:14;6.61;87.43
69436;SHT31;56625;54.322;18.582;2024-02-21T03:38:46;6.62;87.51
69436;SHT31;56625;54.322;18.582;2024-02-21T03:41:14;6.61;87.50
69436;SHT31;56625;54.322;18.582;2024-02-21T03:43:42;6.63;87.60
69436;SHT31;56625;54.322;18.582;2024-02-21T03:46:10;6.64;87.60
69436;SHT31;56625;54.322;18.582;2024-02-21T03:48:39;6.63;87.64
69436;SHT31;56625;54.322;18.582;2024-02-21T03:51:07;6.62;87.69
69436;SHT31;56625;54.322;18.582;2024-02-21T03:53:35;6.63;87.72
69436;SHT31;56625;54.322;18.582;2024-02-21T03:56:03;6.65;87.79
69436;SHT31;56625;54.322;18.582;2024-02-21T03:58:32;6.65;87.80
69436;SHT31;56625;54.322;18.582;2024-02-21T04:01:01;6.64;87.86
69436;SHT31;56625;54.322;18.582;2024-02-21T04:03:31;6.64;87.90
69436;SHT31;56625;54.322;18.582;2024-02-21T04:05:59;6.65;87.98
69436;SHT31;56625;54.322;18.582;2024-02-21T04:08:28;6.64;88.08
69436;SHT31;56625;54.322;18.582;2024-02-21T04:10:56;6.65;88.12
69436;SHT31;56625;54.322;18.582;2024-02-21T04:13:24;6.63;88.22
69436;SHT31;56625;54.322;18.582;2024-02-21T04:15:53;6.63;88.22
69436;SHT31;56625;54.322;18.582;2024-02-21T04:18:21;6.63;88.40
69436;SHT31;56625;54.322;18.582;2024-02-21T04:20:52;6.62;88.47
69436;SHT31;56625;54.322;18.582;2024-02-21T04:23:20;6.61;88.59
69436;SHT31;56625;54.322;18.582;2024-02-21T04:25:48;6.61;88.65
69436;SHT31;56625;54.322;18.582;2024-02-21T04:28:16;6.61;88.80
69436;SHT31;56625;54.322;18.582;2024-02-21T04:30:45;6.61;88.81
69436;SHT31;56625;54.322;18.582;2024-02-21T04:33:13;6.60;88.88
69436;SHT31;56625;54.322;18.582;2024-02-21T04:35:41;6.61;88.90
69436;SHT31;56625;54.322;18.582;2024-02-21T04:38:10;6.61;88.90
69436;SHT31;56625;54.322;18.582;2024-02-21T04:40:38;6.61;88.97
69436;SHT31;56625;54.322;18.582;2024-02-21T04:43:06;6.60;89.05
69436;SHT31;56625;54.322;18.582;2024-02-21T04:45:34;6.60;89.07
69436;SHT31;56625;54.322;18.582;2024-02-21T04:48:02;6.61;89.13
69436;SHT31;56625;54.322;18.582;2024-02-21T04:50:31;6.62;89.12
69436;SHT31;56625;54.322;18.582;2024-02-21T04:53:00;6.61;89.15
69436;SHT31;56625;54.322;18.582;2024-02-21T04:55:28;6.62;89.18
69436;SHT31;56625;54.322;18.582;2024-02-21T04:57:57;6.61;89.29
69436;SHT31;56625;54.322;18.582;2024-02-21T05:00:25;6.63;89.30
69436;SHT31;56625;54.322;18.582;2024-02-21T05:02:53;6.63;89.23
69436;SHT31;56625;54.322;18.582;2024-02-21T05:05:21;6.63;89.20
69436;SHT31;56625;54.322;18.582;2024-02-21T05:07:50;6.65;89.24
69436;SHT31;56625;54.322;18.582;2024-02-21T05:10:18;6.64;89.23
69436;SHT31;56625;54.322;18.582;2024-02-21T05:12:47;6.65;89.28
69436;SHT31;56625;54.322;18.582;2024-02-21T05:15:15;6.64;89.26
69436;SHT31;56625;54.322;18.582;2024-02-21T05:17:43;6.64;89.34
69436;SHT31;56625;54.322;18.582;2024-02-21T05:20:12;6.64;89.30
69436;SHT31;56625;54.322;18.582;2024-02-21T05:22:40;6.64;89.32
69436;SHT31;56625;54.322;18.582;2024-02-21T05:25:08;6.64;89.29
69436;SHT31;56625;54.322;18.582;2024-02-21T05:27:37;6.65;89.30
69436;SHT31;56625;54.322;18.582;2024-02-21T05:30:06;6.66;89.29
69436;SHT31;56625;54.322;18.582;2024-02-21T05:32:35;6.66;89.22
69436;SHT31;56625;54.322;18.582;2024-02-21T05:35:03;6.67;89.21
69436;SHT31;56625;54.322;18.582;2024-02-21T05:37:32;6.68;89.20
69436;SHT31;56625;54.322;18.582;2024-02-21T05:40:00;6.68;89.21
69436;SHT31;56625;54.322;18.582;2024-02-21T05:42:28;6.67;89.15
69436;SHT31;56625;54.322;18.582;2024-02-21T05:44:56;6.68;89.10
69436;SHT31;56625;54.322;18.582;2024-02-21T05:47:24;6.68;89.08
69436;SHT31;56625;54.322;18.582;2024-02-21T05:49:52;6.67;89.00
69436;SHT31;56625;54.322;18.582;2024-02-21T05:52:22;6.68;89.00
69436;SHT31;56625;54.322;18.582;2024-02-21T05:54:50;6.68;88.95
69436;SHT31;56625;54.322;18.582;2024-02-21T05:57:18;6.71;88.89
69436;SHT31;56625;54.322;18.582;2024-02-21T05:59:46;6.71;88.82
69436;SHT31;56625;54.322;18.582;2024-02-21T06:02:14;6.72;88.79
69436;SHT31;56625;54.322;18.582;2024-02-21T06:04:43;6.72;88.79
69436;SHT31;56625;54.322;18.582;2024-02-21T06:07:12;6.72;88.71
69436;SHT31;56625;54.322;18.582;2024-02-21T06:09:41;6.73;88.71
69436;SHT31;56625;54.322;18.582;2024-02-21T06:12:09;6.74;88.70
69436;SHT31;56625;54.322;18.582;2024-02-21T06:14:37;6.74;88.70
69436;SHT31;56625;54.322;18.582;2024-02-21T06:17:05;6.74;88.70
69436;SHT31;56625;54.322;18.582;2024-02-21T06:19:33;6.74;88.66
69436;SHT31;56625;54.322;18.582;2024-02-21T06:22:02;6.75;88.59
69436;SHT31;56625;54.322;18.582;2024-02-21T06:24:35;6.75;88.50
69436;SHT31;56625;54.322;18.582;2024-02-21T06:27:04;6.76;88.39
69436;SHT31;56625;54.322;18.582;2024-02-21T06:29:37;6.78;88.31
69436;SHT31;56625;54.322;18.582;2024-02-21T06:32:06;6.79;88.30
69436;SHT31;56625;54.322;18.582;2024-02-21T06:34:34;6.78;88.24
69436;SHT31;56625;54.322;18.582;2024-02-21T06:37:02;6.80;88.15
69436;SHT31;56625;54.322;18.582;2024-02-21T06:39:31;6.81;88.09
69436;SHT31;56625;54.322;18.582;2024-02-21T06:41:59;6.83;88.05
69436;SHT31;56625;54.322;18.582;2024-02-21T06:44:30;6.84;88.01
69436;SHT31;56625;54.322;18.582;2024-02-21T06:46:59;6.85;87.94
69436;SHT31;56625;54.322;18.582;2024-02-21T06:49:27;6.87;87.93
69436;SHT31;56625;54.322;18.582;2024-02-21T06:51:56;6.88;87.90
69436;SHT31;56625;54.322;18.582;2024-02-21T06:54:24;6.90;87.85
69436;SHT31;56625;54.322;18.582;2024-02-21T06:56:52;6.91;87.80
69436;SHT31;56625;54.322;18.582;2024-02-21T06:59:20;6.92;87.73
69436;SHT31;56625;54.322;18.582;2024-02-21T07:01:48;6.93;87.60
69436;SHT31;56625;54.322;18.582;2024-02-21T07:04:20;6.94;87.48
69436;SHT31;56625;54.322;18.582;2024-02-21T07:06:48;6.95;87.43
69436;SHT31;56625;54.322;18.582;2024-02-21T07:09:16;6.95;87.41
69436;SHT31;56625;54.322;18.582;2024-02-21T07:11:44;6.96;87.40
69436;SHT31;56625;54.322;18.582;2024-02-21T07:14:14;6.98;87.45
69436;SHT31;56625;54.322;18.582;2024-02-21T07:16:45;6.98;87.39
69436;SHT31;56625;54.322;18.582;2024-02-21T07:19:13;6.99;87.37
69436;SHT31;56625;54.322;18.582;2024-02-21T07:21:42;7.01;87.40
69436;SHT31;56625;54.322;18.582;2024-02-21T07:24:10;7.02;87.40
69436;SHT31;56625;54.322;18.582;2024-02-21T07:26:41;7.03;87.42
69436;SHT31;56625;54.322;18.582;2024-02-21T07:29:11;7.02;87.41
69436;SHT31;56625;54.322;18.582;2024-02-21T07:31:42;7.03;87.49
69436;SHT31;56625;54.322;18.582;2024-02-21T07:34:11;7.04;87.54
69436;SHT31;56625;54.322;18.582;2024-02-21T07:36:40;7.03;87.59
69436;SHT31;56625;54.322;18.582;2024-02-21T07:39:10;7.03;87.60
69436;SHT31;56625;54.322;18.582;2024-02-21T07:41:38;7.03;87.67
69436;SHT31;56625;54.322;18.582;2024-02-21T07:44:07;7.04;87.76
69436;SHT31;56625;54.322;18.582;2024-02-21T07:46:36;7.04;87.80
69436;SHT31;56625;54.322;18.582;2024-02-21T07:49:04;7.05;87.88
69436;SHT31;56625;54.322;18.582;2024-02-21T07:51:32;7.04;87.99
69436;SHT31;56625;54.322;18.582;2024-02-21T07:54:00;7.02;88.11
69436;SHT31;56625;54.322;18.582;2024-02-21T07:56:28;7.02;88.22
69436;SHT31;56625;54.322;18.582;2024-02-21T07:58:57;7.01;88.33
69436;SHT31;56625;54.322;18.582;2024-02-21T08:01:25;7.00;88.39
69436;SHT31;56625;54.322;18.582;2024-02-21T08:03:53;7.00;88.51
69436;SHT31;56625;54.322;18.582;2024-02-21T08:06:22;7.02;88.57
69436;SHT31;56625;54.322;18.582;2024-02-21T08:08:50;7.03;88.68
69436;SHT31;56625;54.322;18.582;2024-02-21T08:11:18;7.04;88.79
69436;SHT31;56625;54.322;18.582;2024-02-21T08:13:47;7.05;88.92
69436;SHT31;56625;54.322;18.582;2024-02-21T08:16:15;7.04;89.01
69436;SHT31;56625;54.322;18.582;2024-02-21T08:18:44;7.06;89.07
69436;SHT31;56625;54.322;18.582;2024-02-21T08:21:12;7.07;89.06
69436;SHT31;56625;54.322;18.582;2024-02-21T08:23:40;7.09;89.08
69436;SHT31;56625;54.322;18.582;2024-02-21T08:26:08;7.11;89.07
69436;SHT31;56625;54.322;18.582;2024-02-21T08:28:36;7.14;89.04
69436;SHT31;56625;54.322;18.582;2024-02-21T08:31:05;7.14;88.91
69436;SHT31;56625;54.322;18.582;2024-02-21T08:33:33;7.16;88.90
69436;SHT31;56625;54.322;18.582;2024-02-21T08:36:01;7.18;88.77
69436;SHT31;56625;54.322;18.582;2024-02-21T08:38:31;7.19;88.52
69436;SHT31;56625;54.322;18.582;2024-02-21T08:40:59;7.22;88.48
69436;SHT31;56625;54.322;18.582;2024-02-21T08:43:27;7.22;88.42
69436;SHT31;56625;54.322;18.582;2024-02-21T08:45:55;7.22;88.30
69436;SHT31;56625;54.322;18.582;2024-02-21T08:48:24;7.23;88.20
69436;SHT31;56625;54.322;18.582;2024-02-21T08:50:53;7.25;88.23
69436;SHT31;56625;54.322;18.582;2024-02-21T08:53:22;7.27;88.20
69436;SHT31;56625;54.322;18.582;2024-02-21T08:55:50;7.29;88.10
69436;SHT31;56625;54.322;18.582;2024-02-21T08:58:18;7.31;88.00
69436;SHT31;56625;54.322;18.582;2024-02-21T09:00:49;7.32;87.98
69436;SHT31;56625;54.322;18.582;2024-02-21T09:03:18;7.34;87.90
69436;SHT31;56625;54.322;18.582;2024-02-21T09:05:48;7.36;87.82
69436;SHT31;56625;54.322;18.582;2024-02-21T09:08:16;7.37;87.72
69436;SHT31;56625;54.322;18.582;2024-02-21T09:10:46;7.36;87.68
69436;SHT31;56625;54.322;18.582;2024-02-21T09:13:14;7.36;87.69
69436;SHT31;56625;54.322;18.582;2024-02-21T09:15:42;7.36;87.78
69436;SHT31;56625;54.322;18.582;2024-02-21T09:18:11;7.37;87.81
69436;SHT31;56625;54.322;18.582;2024-02-21T09:20:39;7.38;87.88
69436;SHT31;56625;54.322;18.582;2024-02-21T09:23:07;7.38;87.96
69436;SHT31;56625;54.322;18.582;2024-02-21T09:25:36;7.39;88.01
69436;SHT31;56625;54.322;18.582;2024-02-21T09:28:04;7.41;88.07
69436;SHT31;56625;54.322;18.582;2024-02-21T09:30:34;7.43;88.17
69436;SHT31;56625;54.322;18.582;2024-02-21T09:33:02;7.44;88.21
69436;SHT31;56625;54.322;18.582;2024-02-21T09:35:30;7.47;88.21
69436;SHT31;56625;54.322;18.582;2024-02-21T09:38:01;7.49;88.16
69436;SHT31;56625;54.322;18.582;2024-02-21T09:40:30;7.52;88.11
69436;SHT31;56625;54.322;18.582;2024-02-21T09:43:03;7.55;87.99
69436;SHT31;56625;54.322;18.582;2024-02-21T09:45:34;7.57;87.90
69436;SHT31;56625;54.322;18.582;2024-02-21T09:48:06;7.61;87.94
69436;SHT31;56625;54.322;18.582;2024-02-21T09:50:55;7.62;87.94
69436;SHT31;56625;54.322;18.582;2024-02-21T09:53:27;7.64;88.05
69436;SHT31;56625;54.322;18.582;2024-02-21T09:55:56;7.68;88.11
69436;SHT31;56625;54.322;18.582;2024-02-21T09:58:26;7.74;88.05
69436;SHT31;56625;54.322;18.582;2024-02-21T10:00:55;7.80;87.83
69436;SHT31;56625;54.322;18.582;2024-02-21T10:03:26;7.84;87.67
69436;SHT31;56625;54.322;18.582;2024-02-21T10:05:54;7.88;87.71
69436;SHT31;56625;54.322;18.582;2024-02-21T10:08:22;7.88;87.60
69436;SHT31;56625;54.322;18.582;2024-02-21T10:10:50;7.90;87.51
69436;SHT31;56625;54.322;18.582;2024-02-21T10:13:30;7.94;87.52
69436;SHT31;56625;54.322;18.582;2024-02-21T10:16:05;7.99;87.29
69436;SHT31;56625;54.322;18.582;2024-02-21T10:18:35;8.11;87.29
69436;SHT31;56625;54.322;18.582;2024-02-21T10:21:05;8.32;86.89
69436;SHT31;56625;54.322;18.582;2024-02-21T10:26:14;8.64;85.73
69436;SHT31;56625;54.322;18.582;2024-02-21T10:28:44;8.67;85.05
69436;SHT31;56625;54.322;18.582;2024-02-21T10:31:21;8.70;84.96
69436;SHT31;56625;54.322;18.582;2024-02-21T10:36:31;8.74;84.73
69436;SHT31;56625;54.322;18.582;2024-02-21T10:38:59;8.77;84.73
69436;SHT31;56625;54.322;18.582;2024-02-21T10:41:27;8.78;84.32
69436;SHT31;56625;54.322;18.582;2024-02-21T10:43:58;8.77;84.29
69436;SHT31;56625;54.322;18.582;2024-02-21T10:46:33;8.77;84.42
69436;SHT31;56625;54.322;18.582;2024-02-21T10:49:10;8.77;84.11
69436;SHT31;56625;54.322;18.582;2024-02-21T10:57:49;8.70;84.04
69436;SHT31;56625;54.322;18.582;2024-02-21T11:00:17;8.67;84.06
69436;SHT31;56625;54.322;18.582;2024-02-21T11:02:46;8.66;84.24
69436;SHT31;56625;54.322;18.582;2024-02-21T11:05:17;8.65;84.12
69436;SHT31;56625;54.322;18.582;2024-02-21T11:07:49;8.66;84.31
69436;SHT31;56625;54.322;18.582;2024-02-21T11:10:26;8.67;84.44
69436;SHT31;56625;54.322;18.582;2024-02-21T11:13:10;8.66;84.43
69436;SHT31;56625;54.322;18.582;2024-02-21T11:15:38;8.68;84.60
69436;SHT31;56625;54.322;18.582;2024-02-21T11:18:07;8.67;84.56
69436;SHT31;56625;54.322;18.582;2024-02-21T11:20:36;8.68;84.44
69436;SHT31;56625;54.322;18.582;2024-02-21T11:23:06;8.68;84.39
69436;SHT31;56625;54.322;18.582;2024-02-21T11:25:34;8.68;84.43
69436;SHT31;56625;54.322;18.582;2024-02-21T11:28:03;8.66;84.40
69436;SHT31;56625;54.322;18.582;2024-02-21T11:30:35;8.64;84.51
69436;SHT31;56625;54.322;18.582;2024-02-21T11:33:06;8.61;84.68
69436;SHT31;56625;54.322;18.582;2024-02-21T11:35:35;8.60;84.90
69436;SHT31;56625;54.322;18.582;2024-02-21T11:53:42;8.98;84.01
69436;SHT31;56625;54.322;18.582;2024-02-21T11:56:27;8.91;84.29
69436;SHT31;56625;54.322;18.582;2024-02-21T11:58:55;8.85;84.68
69436;SHT31;56625;54.322;18.582;2024-02-21T12:01:27;8.79;85.08
69436;SHT31;56625;54.322;18.582;2024-02-21T12:03:55;8.75;85.72
69436;SHT31;56625;54.322;18.582;2024-02-21T12:06:23;8.69;86.24
69436;SHT31;56625;54.322;18.582;2024-02-21T12:08:52;8.67;86.63
69436;SHT31;56625;54.322;18.582;2024-02-21T12:11:25;8.64;86.78
69436;SHT31;56625;54.322;18.582;2024-02-21T12:14:03;8.64;86.99
69436;SHT31;56625;54.322;18.582;2024-02-21T12:16:33;8.63;87.10
69436;SHT31;56625;54.322;18.582;2024-02-21T12:19:02;8.66;87.23
69436;SHT31;56625;54.322;18.582;2024-02-21T12:21:34;8.66;87.25
69436;SHT31;56625;54.322;18.582;2024-02-21T12:24:12;8.68;87.06
69436;SHT31;56625;54.322;18.582;2024-02-21T12:26:44;8.71;86.61
69436;SHT31;56625;54.322;18.582;2024-02-21T12:29:12;8.75;86.64
69436;SHT31;56625;54.322;18.582;2024-02-21T12:31:40;8.79;86.49
69436;SHT31;56625;54.322;18.582;2024-02-21T12:34:11;8.81;85.51
69436;SHT31;56625;54.322;18.582;2024-02-21T12:36:43;8.81;84.43
69436;SHT31;56625;54.322;18.582;2024-02-21T12:39:15;8.81;83.83
69436;SHT31;56625;54.322;18.582;2024-02-21T12:41:43;8.80;82.63
69436;SHT31;56625;54.322;18.582;2024-02-21T12:44:13;8.79;82.17
69436;SHT31;56625;54.322;18.582;2024-02-21T12:46:41;8.79;81.23
69436;SHT31;56625;54.322;18.582;2024-02-21T12:49:09;8.77;79.97
69436;SHT31;56625;54.322;18.582;2024-02-21T12:51:38;8.77;79.05
69436;SHT31;56625;54.322;18.582;2024-02-21T12:54:07;8.78;78.58
69436;SHT31;56625;54.322;18.582;2024-02-21T12:56:38;8.77;78.51
69436;SHT31;56625;54.322;18.582;2024-02-21T12:59:07;8.75;78.35
69436;SHT31;56625;54.322;18.582;2024-02-21T13:01:38;8.73;77.63
69436;SHT31;56625;54.322;18.582;2024-02-21T13:04:07;8.70;77.67
69436;SHT31;56625;54.322;18.582;2024-02-21T13:06:35;8.69;77.46
69436;SHT31;56625;54.322;18.582;2024-02-21T13:09:04;8.69;77.36
69436;SHT31;56625;54.322;18.582;2024-02-21T13:11:35;8.71;76.50
69436;SHT31;56625;54.322;18.582;2024-02-21T13:14:05;8.85;76.69
69436;SHT31;56625;54.322;18.582;2024-02-21T13:16:34;9.05;76.72
69436;SHT31;56625;54.322;18.582;2024-02-21T13:19:07;9.20;76.12
69436;SHT31;56625;54.322;18.582;2024-02-21T13:21:36;9.33;75.77
69436;SHT31;56625;54.322;18.582;2024-02-21T13:24:04;9.43;75.46
69436;SHT31;56625;54.322;18.582;2024-02-21T13:26:33;9.53;75.62
69436;SHT31;56625;54.322;18.582;2024-02-21T13:29:01;9.63;75.84
69436;SHT31;56625;54.322;18.582;2024-02-21T13:31:30;9.70;76.01
69436;SHT31;56625;54.322;18.582;2024-02-21T13:33:58;9.80;76.02
69436;SHT31;56625;54.322;18.582;2024-02-21T13:36:27;9.87;75.84
69436;SHT31;56625;54.322;18.582;2024-02-21T13:38:57;9.90;76.04
69436;SHT31;56625;54.322;18.582;2024-02-21T13:41:25;9.92;76.09
69436;SHT31;56625;54.322;18.582;2024-02-21T13:43:54;9.98;76.09
69436;SHT31;56625;54.322;18.582;2024-02-21T13:46:22;9.99;76.36
69436;SHT31;56625;54.322;18.582;2024-02-21T13:48:50;9.99;76.36
69436;SHT31;56625;54.322;18.582;2024-02-21T13:51:32;9.97;76.20
69436;SHT31;56625;54.322;18.582;2024-02-21T13:54:04;9.94;75.98
69436;SHT31;56625;54.322;18.582;2024-02-21T13:56:33;9.89;75.72
69436;SHT31;56625;54.322;18.582;2024-02-21T13:59:02;9.86;75.98
69436;SHT31;56625;54.322;18.582;2024-02-21T14:01:31;9.84;76.05
69436;SHT31;56625;54.322;18.582;2024-02-21T14:04:00;9.82;75.97
69436;SHT31;56625;54.322;18.582;2024-02-21T14:06:29;9.77;76.33
69436;SHT31;56625;54.322;18.582;2024-02-21T14:08:57;9.75;76.70
69436;SHT31;56625;54.322;18.582;2024-02-21T14:11:26;9.79;77.10
69436;SHT31;56625;54.322;18.582;2024-02-21T14:13:58;9.80;76.44
69436;SHT31;56625;54.322;18.582;2024-02-21T14:16:26;9.84;76.82
69436;SHT31;56625;54.322;18.582;2024-02-21T14:18:54;9.83;76.94
69436;SHT31;56625;54.322;18.582;2024-02-21T14:21:23;9.79;77.34
69436;SHT31;56625;54.322;18.582;2024-02-21T14:23:51;9.71;76.27
69436;SHT31;56625;54.322;18.582;2024-02-21T14:26:20;9.62;75.42
69436;SHT31;56625;54.322;18.582;2024-02-21T14:28:49;9.54;75.39
69436;SHT31;56625;54.322;18.582;2024-02-21T14:31:17;9.46;76.06
69436;SHT31;56625;54.322;18.582;2024-02-21T14:33:45;9.39;76.84
69436;SHT31;56625;54.322;18.582;2024-02-21T14:36:14;9.28;77.17
69436;SHT31;56625;54.322;18.582;2024-02-21T14:38:43;9.18;77.80
69436;SHT31;56625;54.322;18.582;2024-02-21T14:41:12;9.10;78.62
69436;SHT31;56625;54.322;18.582;2024-02-21T14:43:40;9.03;79.20
69436;SHT31;56625;54.322;18.582;2024-02-21T14:46:08;8.95;79.53
69436;SHT31;56625;54.322;18.582;2024-02-21T14:48:36;8.90;79.59
69436;SHT31;56625;54.322;18.582;2024-02-21T14:51:04;8.89;79.58
69436;SHT31;56625;54.322;18.582;2024-02-21T14:53:32;8.87;79.37
69436;SHT31;56625;54.322;18.582;2024-02-21T14:56:00;8.86;79.34
69436;SHT31;56625;54.322;18.582;2024-02-21T14:58:29;8.85;79.51
69436;SHT31;56625;54.322;18.582;2024-02-21T15:00:59;8.87;79.52
69436;SHT31;56625;54.322;18.582;2024-02-21T15:03:27;8.87;78.88
69436;SHT31;56625;54.322;18.582;2024-02-21T15:05:57;8.86;78.92
69436;SHT31;56625;54.322;18.582;2024-02-21T15:08:26;8.85;78.59
69436;SHT31;56625;54.322;18.582;2024-02-21T15:10:55;8.84;78.27
69436;SHT31;56625;54.322;18.582;2024-02-21T15:13:24;8.83;78.17
69436;SHT31;56625;54.322;18.582;2024-02-21T15:15:52;8.82;78.28
69436;SHT31;56625;54.322;18.582;2024-02-21T15:18:20;8.79;78.18
69436;SHT31;56625;54.322;18.582;2024-02-21T15:20:48;8.78;78.48
69436;SHT31;56625;54.322;18.582;2024-02-21T15:23:16;8.76;78.63
69436;SHT31;56625;54.322;18.582;2024-02-21T15:25:45;8.73;78.78
69436;SHT31;56625;54.322;18.582;2024-02-21T15:28:13;8.71;78.78
69436;SHT31;56625;54.322;18.582;2024-02-21T15:30:41;8.70;78.63
69436;SHT31;56625;54.322;18.582;2024-02-21T15:33:09;8.67;78.29
69436;SHT31;56625;54.322;18.582;2024-02-21T15:35:38;8.65;78.48
69436;SHT31;56625;54.322;18.582;2024-02-21T15:38:06;8.62;78.01
69436;SHT31;56625;54.322;18.582;2024-02-21T15:40:34;8.62;78.01
69436;SHT31;56625;54.322;18.582;2024-02-21T15:43:03;8.60;77.66
69436;SHT31;56625;54.322;18.582;2024-02-21T15:45:32;8.60;77.53
69436;SHT31;56625;54.322;18.582;2024-02-21T15:48:00;8.59;77.41
69436;SHT31;56625;54.322;18.582;2024-02-21T15:50:28;8.57;77.50
69436;SHT31;56625;54.322;18.582;2024-02-21T15:52:57;8.55;77.30
69436;SHT31;56625;54.322;18.582;2024-02-21T15:55:26;8.53;77.26
69436;SHT31;56625;54.322;18.582;2024-02-21T15:57:56;8.52;77.18
69436;SHT31;56625;54.322;18.582;2024-02-21T16:00:24;8.52;77.34
69436;SHT31;56625;54.322;18.582;2024-02-21T16:02:53;8.50;77.34
69436;SHT31;56625;54.322;18.582;2024-02-21T16:05:21;8.49;77.48
69436;SHT31;56625;54.322;18.582;2024-02-21T16:07:49;8.47;77.56